createdAt,value
2022-08-30T00:00:06.849Z,57.37
2022-08-30T00:02:36.313Z,57.50
2022-08-30T00:05:05.261Z,57.43
2022-08-30T00:07:35.143Z,57.56
2022-08-30T00:10:06.200Z,57.75
2022-08-30T00:12:35.182Z,57.44
2022-08-30T00:15:05.012Z,57.68
2022-08-30T00:17:33.621Z,57.86
2022-08-30T00:20:02.455Z,57.98
2022-08-30T00:22:32.997Z,57.85
2022-08-30T00:25:02.219Z,58.29
2022-08-30T00:27:32.223Z,58.33
2022-08-30T00:30:01.618Z,58.29
2022-08-30T00:32:30.531Z,58.23
2022-08-30T00:34:58.971Z,58.46
2022-08-30T00:37:28.058Z,58.52
2022-08-30T00:39:56.468Z,58.41
2022-08-30T00:42:26.225Z,58.54
2022-08-30T00:44:56.706Z,58.75
2022-08-30T00:47:26.548Z,58.45
2022-08-30T00:49:58.848Z,58.68
2022-08-30T00:52:27.288Z,58.50
2022-08-30T00:54:56.616Z,58.42
2022-08-30T00:57:25.129Z,58.15
2022-08-30T00:59:54.119Z,58.23
2022-08-30T01:02:25.409Z,58.54
2022-08-30T01:04:55.844Z,58.66
2022-08-30T01:07:25.243Z,58.81
2022-08-30T01:09:53.874Z,58.86
2022-08-30T01:12:23.991Z,58.92
2022-08-30T01:14:52.758Z,58.86
2022-08-30T01:17:21.600Z,58.92
2022-08-30T01:19:58.602Z,58.80
2022-08-30T01:22:34.028Z,58.58
2022-08-30T01:25:08.237Z,58.76
2022-08-30T01:27:40.995Z,58.73
2022-08-30T01:30:11.689Z,58.79
2022-08-30T01:32:42.459Z,58.64
2022-08-30T01:35:12.793Z,59.10
2022-08-30T01:37:41.605Z,59.22
2022-08-30T01:40:14.050Z,59.42
2022-08-30T01:42:43.139Z,59.50
2022-08-30T01:45:13.789Z,59.47
2022-08-30T01:47:42.781Z,59.26
2022-08-30T01:50:12.175Z,59.52
2022-08-30T01:52:41.279Z,59.43
2022-08-30T01:55:11.877Z,59.41
2022-08-30T01:57:41.758Z,59.57
2022-08-30T02:00:12.474Z,59.85
2022-08-30T02:02:41.366Z,59.75
2022-08-30T02:05:10.587Z,60.01
2022-08-30T02:07:39.113Z,59.86
2022-08-30T02:10:09.185Z,60.01
2022-08-30T02:12:39.453Z,59.90
2022-08-30T02:15:09.815Z,60.04
2022-08-30T02:17:39.420Z,60.19
2022-08-30T02:20:08.963Z,60.29
2022-08-30T02:22:37.881Z,60.60
2022-08-30T02:25:12.171Z,60.85
2022-08-30T02:27:51.345Z,61.25
2022-08-30T02:30:19.722Z,61.15
2022-08-30T02:32:48.467Z,61.29
2022-08-30T02:35:17.278Z,61.22
2022-08-30T02:37:46.719Z,60.86
2022-08-30T02:40:15.965Z,60.87
2022-08-30T02:42:44.818Z,60.65
2022-08-30T02:45:15.271Z,60.59
2022-08-30T02:47:47.311Z,60.70
2022-08-30T02:50:16.269Z,60.77
2022-08-30T02:52:48.270Z,60.63
2022-08-30T02:55:18.286Z,60.68
2022-08-30T02:57:47.704Z,60.66
2022-08-30T03:00:21.885Z,60.81
2022-08-30T03:02:50.318Z,60.71
2022-08-30T03:05:20.194Z,60.71
2022-08-30T03:07:48.885Z,60.81
2022-08-30T03:10:18.706Z,60.74
2022-08-30T03:12:48.308Z,60.88
2022-08-30T03:15:18.813Z,60.75
2022-08-30T03:17:47.465Z,60.57
2022-08-30T03:20:16.398Z,60.95
2022-08-30T03:22:44.762Z,60.73
2022-08-30T03:25:13.946Z,61.12
2022-08-30T03:27:42.448Z,60.82
2022-08-30T03:30:12.643Z,60.99
2022-08-30T03:32:43.241Z,60.71
2022-08-30T03:35:14.321Z,60.93
2022-08-30T03:37:42.766Z,61.34
2022-08-30T03:40:13.889Z,61.34
2022-08-30T03:42:43.330Z,61.22
2022-08-30T03:45:14.921Z,61.31
2022-08-30T03:47:45.578Z,61.39
2022-08-30T03:50:16.903Z,61.57
2022-08-30T03:52:46.263Z,61.83
2022-08-30T03:55:14.804Z,62.05
2022-08-30T03:57:43.969Z,62.36
2022-08-30T04:00:13.942Z,62.10
2022-08-30T04:02:43.981Z,62.14
2022-08-30T04:05:13.986Z,61.98
2022-08-30T04:07:44.082Z,61.99
2022-08-30T04:10:13.438Z,61.80
2022-08-30T04:12:47.412Z,61.70
2022-08-30T04:15:20.541Z,61.65
2022-08-30T04:17:51.581Z,61.66
2022-08-30T04:20:20.296Z,61.48
2022-08-30T04:22:49.627Z,61.56
2022-08-30T04:25:18.272Z,61.53
2022-08-30T04:27:47.681Z,61.88
2022-08-30T04:30:17.790Z,61.98
2022-08-30T04:32:47.295Z,62.09
2022-08-30T04:35:17.082Z,62.22
2022-08-30T04:37:47.138Z,62.34
2022-08-30T04:40:16.062Z,62.20
2022-08-30T04:42:45.650Z,62.26
2022-08-30T04:45:17.102Z,62.07
2022-08-30T04:47:46.786Z,61.89
2022-08-30T04:50:20.871Z,62.02
2022-08-30T04:52:49.753Z,61.85
2022-08-30T04:55:20.425Z,61.90
2022-08-30T04:57:49.281Z,61.88
2022-08-30T05:00:20.434Z,62.11
2022-08-30T05:02:48.964Z,61.94
2022-08-30T05:05:35.153Z,62.03
2022-08-30T05:08:05.259Z,61.69
2022-08-30T05:10:34.312Z,61.92
2022-08-30T05:13:03.619Z,62.26
2022-08-30T05:15:32.642Z,62.17
2022-08-30T05:18:01.094Z,62.22
2022-08-30T05:20:30.503Z,62.17
2022-08-30T05:22:59.012Z,62.27
2022-08-30T05:25:32.694Z,62.32
2022-08-30T05:28:01.286Z,62.24
2022-08-30T05:30:30.135Z,62.37
2022-08-30T05:32:58.453Z,62.43
2022-08-30T05:35:27.723Z,62.44
2022-08-30T05:37:56.812Z,62.43
2022-08-30T05:40:25.666Z,62.31
2022-08-30T05:42:59.461Z,62.38
2022-08-30T05:45:28.257Z,62.30
2022-08-30T05:47:56.677Z,62.43
2022-08-30T05:50:25.015Z,62.50
2022-08-30T05:52:53.779Z,62.44
2022-08-30T05:55:23.095Z,62.72
2022-08-30T05:57:51.480Z,62.65
2022-08-30T06:00:21.739Z,62.70
2022-08-30T06:02:55.496Z,62.98
2022-08-30T06:05:24.131Z,63.06
2022-08-30T06:07:53.191Z,63.29
2022-08-30T06:10:21.529Z,63.23
2022-08-30T06:12:50.334Z,63.49
2022-08-30T06:15:19.247Z,63.67
2022-08-30T06:17:49.982Z,64.07
2022-08-30T06:20:20.223Z,64.50
2022-08-30T06:22:48.944Z,64.09
2022-08-30T06:25:18.563Z,64.13
2022-08-30T06:27:47.504Z,63.85
2022-08-30T06:30:16.252Z,63.87
2022-08-30T06:32:48.438Z,63.84
2022-08-30T06:35:18.903Z,63.99
2022-08-30T06:37:47.249Z,64.02
2022-08-30T06:40:17.668Z,63.94
2022-08-30T06:42:46.148Z,64.08
2022-08-30T06:45:15.926Z,64.22
2022-08-30T06:47:46.024Z,64.15
2022-08-30T06:50:15.953Z,64.41
2022-08-30T06:52:47.344Z,64.57
2022-08-30T06:55:17.456Z,64.75
2022-08-30T06:57:47.362Z,64.95
2022-08-30T07:00:18.289Z,65.58
2022-08-30T07:02:46.909Z,66.16
2022-08-30T07:05:18.808Z,66.55
2022-08-30T07:07:50.166Z,66.89
2022-08-30T07:10:18.937Z,67.47
2022-08-30T07:12:47.314Z,67.59
2022-08-30T07:15:15.726Z,68.07
2022-08-30T07:18:01.803Z,68.10
2022-08-30T07:20:40.588Z,68.25
2022-08-30T07:23:12.800Z,68.62
2022-08-30T07:25:42.281Z,68.62
2022-08-30T07:28:11.145Z,68.22
2022-08-30T07:30:41.887Z,68.40
2022-08-30T07:33:10.686Z,68.17
2022-08-30T07:35:40.623Z,68.53
2022-08-30T07:38:13.318Z,68.65
2022-08-30T07:40:43.144Z,68.43
2022-08-30T07:43:11.650Z,68.65
2022-08-30T07:45:40.920Z,68.46
2022-08-30T07:48:11.561Z,68.16
2022-08-30T07:50:44.168Z,68.19
2022-08-30T07:53:13.360Z,67.54
2022-08-30T07:55:43.605Z,67.33
2022-08-30T07:58:11.998Z,67.21
2022-08-30T08:00:40.765Z,66.95
2022-08-30T08:03:11.584Z,66.49
2022-08-30T08:05:41.302Z,65.65
2022-08-30T08:08:11.386Z,65.51
2022-08-30T08:10:41.286Z,64.64
2022-08-30T08:13:12.022Z,64.32
2022-08-30T08:15:40.617Z,63.89
2022-08-30T08:18:09.488Z,63.35
2022-08-30T08:20:38.561Z,62.96
2022-08-30T08:23:07.446Z,62.62
2022-08-30T08:25:41.155Z,62.36
2022-08-30T08:28:11.703Z,61.93
2022-08-30T08:30:41.559Z,61.52
2022-08-30T08:33:13.574Z,61.14
2022-08-30T08:35:42.506Z,60.47
2022-08-30T08:38:11.031Z,59.85
2022-08-30T08:40:47.718Z,59.30
2022-08-30T08:43:20.408Z,59.06
2022-08-30T08:45:57.250Z,58.70
2022-08-30T08:48:58.167Z,58.06
2022-08-30T08:51:45.156Z,57.67
2022-08-30T08:54:17.686Z,57.04
2022-08-30T08:56:46.290Z,56.96
2022-08-30T08:59:17.344Z,56.42
2022-08-30T09:01:48.585Z,55.84
2022-08-30T09:04:21.192Z,55.49
2022-08-30T09:06:54.634Z,54.91
2022-08-30T09:09:27.367Z,54.41
2022-08-30T09:11:57.135Z,53.73
2022-08-30T09:14:30.590Z,53.75
2022-08-30T09:20:00.377Z,52.44
2022-08-30T09:22:35.761Z,51.81
2022-08-30T09:25:07.554Z,51.17
2022-08-30T09:27:38.593Z,51.22
2022-08-30T09:30:15.032Z,50.91
2022-08-30T09:32:50.717Z,50.37
2022-08-30T09:35:21.789Z,49.76
2022-08-30T09:37:56.853Z,49.62
2022-08-30T09:40:29.487Z,48.87
2022-08-30T09:43:08.429Z,48.31
2022-08-30T09:45:41.797Z,47.55
2022-08-30T09:48:32.983Z,47.26
2022-08-30T09:51:24.383Z,46.11
2022-08-30T09:54:17.361Z,45.42
2022-08-30T09:56:57.994Z,44.93
2022-08-30T09:59:42.133Z,43.64
2022-08-30T10:02:31.267Z,43.56
2022-08-30T10:05:07.647Z,43.03
2022-08-30T10:07:47.958Z,42.55
2022-08-30T10:10:25.867Z,41.78
2022-08-30T10:13:05.809Z,40.64
2022-08-30T10:15:40.174Z,39.41
2022-08-30T10:18:17.736Z,38.89
2022-08-30T10:20:55.035Z,38.34
2022-08-30T10:23:29.631Z,38.03
2022-08-30T10:26:07.803Z,38.11
2022-08-30T10:28:41.896Z,37.53
2022-08-30T10:31:17.810Z,37.27
2022-08-30T10:33:53.104Z,37.08
2022-08-30T10:36:32.371Z,36.67
2022-08-30T10:39:03.472Z,35.90
2022-08-30T10:41:38.911Z,35.32
2022-08-30T10:44:12.978Z,35.27
2022-08-30T10:46:57.633Z,34.68
2022-08-30T10:49:30.190Z,34.70
2022-08-30T10:52:06.763Z,34.61
2022-08-30T10:54:42.881Z,33.98
2022-08-30T10:57:11.870Z,34.14
2022-08-30T10:59:48.269Z,34.59
2022-08-30T11:02:39.507Z,34.02
2022-08-30T11:05:40.703Z,33.87
2022-08-30T11:08:22.221Z,33.52
2022-08-30T11:10:59.938Z,32.87
2022-08-30T11:13:32.262Z,32.48
2022-08-30T11:16:05.193Z,32.22
2022-08-30T11:18:42.662Z,31.89
2022-08-30T11:21:23.651Z,31.21
2022-08-30T11:24:11.734Z,31.07
2022-08-30T11:27:07.629Z,31.27
2022-08-30T11:29:43.260Z,30.59
2022-08-30T11:32:46.685Z,30.29
2022-08-30T11:35:37.184Z,29.93
2022-08-30T11:38:18.981Z,29.00
2022-08-30T11:40:51.327Z,29.54
2022-08-30T11:43:53.274Z,29.64
2022-08-30T11:46:37.431Z,29.77
2022-08-30T11:49:39.000Z,29.38
2022-08-30T11:52:28.599Z,29.26
2022-08-30T11:55:26.098Z,29.30
2022-08-30T11:58:01.901Z,28.78
2022-08-30T12:00:35.370Z,28.58
2022-08-30T12:03:06.675Z,28.77
2022-08-30T12:05:55.023Z,28.20
2022-08-30T12:09:02.569Z,27.73
2022-08-30T12:12:04.723Z,27.83
2022-08-30T12:14:55.065Z,28.15
2022-08-30T12:17:49.104Z,28.40
2022-08-30T12:20:27.757Z,28.43
2022-08-30T12:22:58.042Z,28.51
2022-08-30T12:25:33.638Z,27.94
2022-08-30T12:28:14.119Z,27.84
2022-08-30T12:30:46.790Z,27.53
2022-08-30T12:33:29.291Z,27.23
2022-08-30T12:35:59.361Z,26.98
2022-08-30T12:38:29.810Z,26.48
2022-08-30T12:41:01.491Z,26.17
2022-08-30T12:43:40.385Z,25.80
2022-08-30T12:46:15.998Z,25.47
2022-08-30T12:48:46.625Z,25.19
2022-08-30T12:51:29.287Z,25.16
2022-08-30T12:54:07.234Z,24.77
2022-08-30T12:56:57.807Z,24.71
2022-08-30T12:59:58.612Z,24.07
2022-08-30T13:02:42.605Z,24.07
2022-08-30T13:05:45.800Z,23.91
2022-08-30T13:08:20.213Z,23.66
2022-08-30T13:10:52.519Z,24.11
2022-08-30T13:13:40.289Z,23.98
2022-08-30T13:16:13.975Z,24.03
2022-08-30T13:18:42.333Z,24.21
2022-08-30T13:21:25.054Z,24.04
2022-08-30T13:23:57.742Z,23.73
2022-08-30T13:26:26.651Z,24.04
2022-08-30T13:28:58.224Z,24.08
2022-08-30T13:31:31.123Z,24.01
2022-08-30T13:34:02.746Z,24.02
2022-08-30T13:36:33.541Z,24.31
2022-08-30T13:39:04.331Z,24.20
2022-08-30T13:41:34.221Z,24.46
2022-08-30T13:44:13.835Z,24.57
2022-08-30T13:46:53.857Z,24.14
2022-08-30T13:52:21.538Z,24.75
2022-08-30T13:54:51.318Z,25.08
2022-08-30T14:00:17.528Z,25.74
2022-08-30T14:02:54.897Z,26.40
2022-08-30T14:11:06.926Z,25.71
2022-08-30T14:13:36.903Z,25.28
2022-08-30T14:19:00.535Z,25.22
2022-08-30T14:21:29.166Z,24.84
2022-08-30T14:23:59.888Z,24.98
2022-08-30T14:26:33.203Z,24.84
2022-08-30T14:29:04.548Z,24.86
2022-08-30T14:31:33.657Z,24.52
2022-08-30T14:34:05.207Z,25.02
2022-08-30T14:36:36.571Z,24.96
2022-08-30T14:39:09.738Z,25.58
2022-08-30T14:41:44.301Z,25.64
2022-08-30T14:44:13.438Z,25.74
2022-08-30T14:46:42.962Z,25.98
2022-08-30T14:49:14.446Z,26.08
2022-08-30T14:51:43.700Z,26.36
2022-08-30T14:54:12.030Z,26.67
2022-08-30T14:56:41.811Z,26.38
2022-08-30T14:59:12.136Z,26.92
2022-08-30T15:01:42.989Z,27.38
2022-08-30T15:04:14.653Z,28.28
2022-08-30T15:06:45.901Z,28.62
2022-08-30T15:09:18.491Z,28.94
2022-08-30T15:11:53.051Z,29.32
2022-08-30T15:14:23.278Z,29.78
2022-08-30T15:16:55.736Z,29.62
2022-08-30T15:19:26.258Z,29.69
2022-08-30T15:21:55.419Z,29.37
2022-08-30T15:24:29.604Z,29.49
2022-08-30T15:27:00.642Z,29.21
2022-08-30T15:29:31.919Z,30.02
2022-08-30T15:32:02.089Z,29.78
2022-08-30T15:34:32.838Z,30.03
2022-08-30T15:37:01.222Z,29.66
2022-08-30T15:39:30.669Z,29.23
2022-08-30T15:42:01.214Z,29.30
2022-08-30T15:44:31.419Z,29.38
2022-08-30T15:47:00.765Z,29.56
2022-08-30T15:49:30.430Z,29.52
2022-08-30T15:52:02.643Z,29.60
2022-08-30T15:54:32.236Z,29.90
2022-08-30T15:57:01.305Z,29.91
2022-08-30T15:59:32.432Z,30.68
2022-08-30T16:02:01.031Z,30.45
2022-08-30T16:04:30.140Z,30.90
2022-08-30T16:06:59.149Z,30.67
2022-08-30T16:09:29.863Z,31.12
2022-08-30T16:12:02.085Z,30.99
2022-08-30T16:14:31.702Z,31.13
2022-08-30T16:17:00.438Z,31.14
2022-08-30T16:19:29.402Z,31.37
2022-08-30T16:21:59.039Z,31.58
2022-08-30T16:24:28.823Z,31.78
2022-08-30T16:26:58.207Z,31.80
2022-08-30T16:29:26.700Z,32.18
2022-08-30T16:31:55.960Z,32.41
2022-08-30T16:34:24.777Z,32.59
2022-08-30T16:36:54.306Z,32.73
2022-08-30T16:39:23.277Z,32.71
2022-08-30T16:41:53.134Z,33.22
2022-08-30T16:44:21.898Z,33.22
2022-08-30T16:46:52.791Z,33.04
2022-08-30T16:49:25.589Z,33.23
2022-08-30T16:51:54.727Z,33.37
2022-08-30T16:54:23.772Z,33.40
2022-08-30T16:56:55.871Z,33.34
2022-08-30T16:59:24.933Z,33.43
2022-08-30T17:01:53.922Z,33.95
2022-08-30T17:04:23.668Z,34.22
2022-08-30T17:06:53.678Z,34.10
2022-08-30T17:09:22.932Z,34.07
2022-08-30T17:11:52.779Z,34.42
2022-08-30T17:14:28.077Z,34.28
2022-08-30T17:16:58.635Z,34.41
2022-08-30T17:19:30.423Z,35.13
2022-08-30T17:21:59.702Z,34.89
2022-08-30T17:24:28.359Z,35.13
2022-08-30T17:29:48.031Z,35.88
2022-08-30T17:32:17.217Z,36.12
2022-08-30T17:34:46.119Z,36.09
2022-08-30T17:37:15.736Z,36.16
2022-08-30T17:39:44.730Z,36.45
2022-08-30T17:42:14.219Z,36.58
2022-08-30T17:44:43.618Z,36.89
2022-08-30T17:47:13.420Z,36.62
2022-08-30T17:49:43.092Z,36.93
2022-08-30T17:52:12.669Z,37.23
2022-08-30T17:54:42.371Z,37.27
2022-08-30T17:57:11.952Z,37.42
2022-08-30T17:59:41.945Z,37.92
2022-08-30T18:02:11.378Z,38.09
2022-08-30T18:04:42.330Z,38.00
2022-08-30T18:07:12.435Z,38.41
2022-08-30T18:09:42.186Z,38.56
2022-08-30T18:12:13.124Z,38.74
2022-08-30T18:14:42.645Z,38.96
2022-08-30T18:17:11.488Z,38.80
2022-08-30T18:19:46.403Z,39.37
2022-08-30T18:22:16.254Z,39.48
2022-08-30T18:24:44.845Z,40.30
2022-08-30T18:27:15.371Z,40.72
2022-08-30T18:29:44.259Z,41.27
2022-08-30T18:32:13.177Z,41.34
2022-08-30T18:34:43.352Z,41.84
2022-08-30T18:37:13.297Z,41.95
2022-08-30T18:39:43.624Z,42.27
2022-08-30T18:42:12.423Z,42.15
2022-08-30T18:44:43.495Z,42.26
2022-08-30T18:47:13.142Z,42.33
2022-08-30T18:49:42.935Z,42.60
2022-08-30T18:52:12.483Z,42.79
2022-08-30T18:54:43.126Z,43.01
2022-08-30T18:57:14.375Z,43.47
2022-08-30T18:59:43.142Z,43.85
2022-08-30T19:02:14.122Z,44.25
2022-08-30T19:04:45.493Z,44.24
2022-08-30T19:07:16.314Z,44.32
2022-08-30T19:09:47.185Z,44.41
2022-08-30T19:12:16.153Z,44.52
2022-08-30T19:14:44.539Z,44.48
2022-08-30T19:17:14.054Z,44.67
2022-08-30T19:19:48.392Z,45.03
2022-08-30T19:22:19.236Z,45.31
2022-08-30T19:24:47.905Z,45.40
2022-08-30T19:27:21.304Z,45.63
2022-08-30T19:29:53.196Z,45.82
2022-08-30T19:32:22.777Z,46.18
2022-08-30T19:34:52.895Z,46.37
2022-08-30T19:37:21.868Z,46.55
2022-08-30T19:39:50.572Z,46.67
2022-08-30T19:42:20.979Z,46.71
2022-08-30T19:44:51.178Z,46.67
2022-08-30T19:47:21.009Z,46.44
2022-08-30T19:49:49.350Z,46.43
2022-08-30T19:52:22.639Z,46.34
2022-08-30T19:54:51.023Z,46.28
2022-08-30T19:57:20.183Z,46.30
2022-08-30T19:59:48.717Z,46.16
2022-08-30T20:02:17.914Z,46.16
2022-08-30T20:04:47.124Z,46.34
2022-08-30T20:07:24.713Z,46.48
2022-08-30T20:09:56.506Z,46.37
2022-08-30T20:12:25.253Z,46.71
2022-08-30T20:14:53.976Z,46.65
2022-08-30T20:17:37.982Z,46.66
2022-08-30T20:20:20.464Z,46.61
2022-08-30T20:22:54.123Z,46.84
2022-08-30T20:24:24.933Z,35.38
2022-08-30T20:25:24.173Z,47.12
2022-08-30T20:27:52.895Z,47.21
2022-08-30T20:30:21.397Z,47.38
2022-08-30T20:32:52.508Z,47.58
2022-08-30T20:35:21.334Z,47.39
2022-08-30T20:37:51.162Z,47.79
2022-08-30T20:40:20.637Z,47.63
2022-08-30T20:42:51.019Z,48.02
2022-08-30T20:45:19.798Z,48.07
2022-08-30T20:47:48.179Z,48.15
2022-08-30T20:50:17.659Z,48.06
2022-08-30T20:52:47.614Z,48.33
2022-08-30T20:55:17.297Z,48.46
2022-08-30T20:57:47.665Z,48.95
2022-08-30T21:00:18.104Z,48.73
2022-08-30T21:02:48.385Z,49.43
2022-08-30T21:05:18.585Z,49.26
2022-08-30T21:07:48.181Z,49.71
2022-08-30T21:10:21.305Z,49.85
2022-08-30T21:12:52.410Z,49.86
2022-08-30T21:15:39.109Z,49.96
2022-08-30T21:18:08.519Z,50.32
2022-08-30T21:20:37.750Z,50.31
2022-08-30T21:23:06.135Z,50.80
2022-08-30T21:25:34.887Z,50.84
2022-08-30T21:28:03.635Z,50.74
2022-08-30T21:30:33.807Z,50.66
2022-08-30T21:33:02.895Z,50.73
2022-08-30T21:35:49.470Z,50.70
2022-08-30T21:38:19.058Z,51.01
2022-08-30T21:40:49.029Z,51.08
2022-08-30T21:43:17.566Z,51.05
2022-08-30T21:45:50.748Z,51.06
2022-08-30T21:48:19.407Z,51.05
2022-08-30T21:50:48.646Z,51.21
2022-08-30T21:53:17.595Z,51.50
2022-08-30T21:55:48.186Z,51.39
2022-08-30T21:58:17.653Z,51.48
2022-08-30T22:00:45.992Z,51.95
2022-08-30T22:03:16.920Z,52.04
2022-08-30T22:05:52.168Z,52.19
2022-08-30T22:08:21.311Z,52.33
2022-08-30T22:10:50.081Z,52.36
2022-08-30T22:13:18.568Z,52.71
2022-08-30T22:15:47.940Z,52.61
2022-08-30T22:18:18.127Z,52.53
2022-08-30T22:20:47.271Z,52.92
2022-08-30T22:23:19.057Z,52.78
2022-08-30T22:25:47.748Z,53.04
2022-08-30T22:28:16.536Z,53.17
2022-08-30T22:30:45.072Z,53.38
2022-08-30T22:33:14.575Z,53.49
2022-08-30T22:35:45.219Z,53.22
2022-08-30T22:38:15.311Z,53.35
2022-08-30T22:40:48.320Z,53.67
2022-08-30T22:43:18.187Z,53.81
2022-08-30T22:45:47.739Z,53.65
2022-08-30T22:48:16.378Z,53.80
2022-08-30T22:50:46.829Z,54.28
2022-08-30T22:53:15.207Z,54.24
2022-08-30T22:55:44.501Z,53.99
2022-08-30T22:58:12.901Z,54.24
2022-08-30T23:00:54.579Z,54.57
2022-08-30T23:03:24.217Z,54.59
2022-08-30T23:05:54.772Z,54.81
2022-08-30T23:08:23.184Z,54.67
2022-08-30T23:10:53.778Z,55.21
2022-08-30T23:13:22.747Z,54.88
2022-08-30T23:15:51.091Z,55.24
2022-08-30T23:18:20.271Z,55.22
2022-08-30T23:20:48.673Z,54.81
2022-08-30T23:23:36.610Z,55.32
2022-08-30T23:26:22.934Z,55.01
2022-08-30T23:29:08.656Z,55.42
2022-08-30T23:31:55.301Z,55.50
2022-08-30T23:34:41.106Z,55.54
2022-08-30T23:37:27.679Z,55.68
2022-08-30T23:40:14.688Z,55.45
2022-08-30T23:43:01.515Z,55.81
2022-08-30T23:45:47.338Z,55.42
2022-08-30T23:48:34.181Z,55.89
2022-08-30T23:51:21.895Z,55.72
2022-08-30T23:54:09.637Z,56.12
2022-08-30T23:56:57.607Z,56.05
2022-08-30T23:59:44.579Z,56.16
